Time;durP1;ratioP1;P1;durP2;ratioP2;P2;SDS_P1;SDS_P2;PMS_P1;PMS_P2;Temp;Humidity;BMP_temperature;BMP_pressure;BME280_temperature;BME280_humidity;BME280_pressure;Samples;Min_cycle;Max_cycle;Signal;HPM_P1;HPM_P2
2023/04/16 00:01:53;;;;;;;;;;;;;;;7.11;100.00;102200.94;5080026;28;20381;-54
2023/04/16 00:04:18;;;;;;;;;;;;;;;7.12;100.00;102196.72;5080353;28;20564;-53
2023/04/16 00:06:43;;;;;;;;;;;;;;;7.11;100.00;102200.06;5078959;28;20062;-55
2023/04/16 00:09:09;;;;;;;;;;;;;;;7.14;100.00;102206.22;5078078;28;20428;-55
2023/04/16 00:11:34;;;;;;;;;;;;;;;7.13;100.00;102204.47;5079392;28;19924;-53
2023/04/16 00:13:59;;;;;;;;;;;;;;;7.19;100.00;102202.31;5076070;28;19929;-53
2023/04/16 00:16:25;;;;;;;;;;;;;;;7.19;100.00;102207.41;5077766;28;20004;-55
2023/04/16 00:18:50;;;;;;;;;;;;;;;7.22;100.00;102205.06;5081936;28;19920;-54
2023/04/16 00:21:15;;;;;;;;;;;;;;;7.21;100.00;102204.94;5078068;28;20291;-55
2023/04/16 00:23:40;;;;;;;;;;;;;;;7.18;100.00;102202.22;5072475;28;19929;-55
2023/04/16 00:26:07;;;;;;;;;;;;;;;7.19;100.00;102198.84;5073982;28;19928;-54
2023/04/16 00:28:33;;;;;;;;;;;;;;;7.20;100.00;102201.50;5079254;28;19967;-54
2023/04/16 00:30:59;;;;;;;;;;;;;;;7.22;100.00;102207.63;5086042;28;20366;-54
2023/04/16 00:33:25;;;;;;;;;;;;;;;7.21;100.00;102208.38;5075570;28;19931;-54
2023/04/16 00:35:50;;;;;;;;;;;;;;;7.29;100.00;102203.78;5077597;28;19920;-52
2023/04/16 00:38:15;;;;;;;;;;;;;;;7.23;100.00;102208.50;5075817;28;19938;-55
2023/04/16 00:40:41;;;;;;;;;;;;;;;7.19;100.00;102201.41;5081350;28;20027;-55
2023/04/16 00:43:06;;;;;;;;;;;;;;;7.21;100.00;102198.16;5079754;28;20010;-54
2023/04/16 00:45:31;;;;;;;;;;;;;;;7.24;100.00;102197.47;5076638;28;19920;-55
2023/04/16 00:47:57;;;;;;;;;;;;;;;7.22;100.00;102197.41;5084493;28;20239;-55
2023/04/16 00:50:22;;;;;;;;;;;;;;;7.25;100.00;102194.13;5076346;28;19951;-54
2023/04/16 00:52:48;;;;;;;;;;;;;;;7.22;100.00;102207.63;5082488;28;19970;-57
2023/04/16 00:55:14;;;;;;;;;;;;;;;7.18;100.00;102190.31;5081215;28;20015;-54
2023/04/16 00:57:39;;;;;;;;;;;;;;;7.21;100.00;102192.16;5082497;28;19925;-55
2023/04/16 01:00:05;;;;;;;;;;;;;;;7.24;100.00;102192.38;5083559;28;20318;-54
2023/04/16 01:02:30;;;;;;;;;;;;;;;7.24;100.00;102189.81;5085791;28;19924;-55
2023/04/16 01:04:55;;;;;;;;;;;;;;;7.25;100.00;102196.69;5088324;28;19928;-55
2023/04/16 01:07:21;;;;;;;;;;;;;;;7.25;100.00;102183.91;5082076;28;19924;-55
2023/04/16 01:09:46;;;;;;;;;;;;;;;7.28;100.00;102191.78;5082414;28;19939;-55
2023/04/16 01:12:12;;;;;;;;;;;;;;;7.26;100.00;102188.22;5083516;28;20421;-55
2023/04/16 01:14:37;;;;;;;;;;;;;;;7.25;100.00;102196.69;5082387;28;20272;-54
2023/04/16 01:17:02;;;;;;;;;;;;;;;7.28;100.00;102189.22;5078613;28;19928;-55
2023/04/16 01:19:30;;;;;;;;;;;;;;;7.30;100.00;102182.50;5086382;28;19927;-55
2023/04/16 01:21:55;;;;;;;;;;;;;;;7.30;100.00;102187.63;5082328;28;19920;-55
2023/04/16 01:24:20;;;;;;;;;;;;;;;7.30;100.00;102185.06;5084971;28;19943;-56
2023/04/16 01:26:46;;;;;;;;;;;;;;;7.26;100.00;102195.88;5082244;28;20436;-56
2023/04/16 01:29:11;;;;;;;;;;;;;;;7.29;100.00;102188.44;5078683;28;19915;-56
2023/04/16 01:31:36;;;;;;;;;;;;;;;7.31;100.00;102186.84;5084727;28;19924;-56
2023/04/16 01:34:01;;;;;;;;;;;;;;;7.32;100.00;102193.72;5083817;28;19924;-56
2023/04/16 01:36:26;;;;;;;;;;;;;;;7.30;100.00;102192.75;5084909;28;19993;-54
2023/04/16 01:38:52;;;;;;;;;;;;;;;7.29;100.00;102196.09;5083725;28;20574;-55
2023/04/16 01:41:17;;;;;;;;;;;;;;;7.36;100.00;102199.91;5080159;28;19972;-55
2023/04/16 01:43:42;;;;;;;;;;;;;;;7.36;100.00;102200.81;5080991;28;20410;-55
2023/04/16 01:46:10;;;;;;;;;;;;;;;7.34;100.00;102201.47;5083189;28;19974;-55
2023/04/16 01:48:36;;;;;;;;;;;;;;;7.34;100.00;102191.25;5086258;28;19916;-55
2023/04/16 01:51:01;;;;;;;;;;;;;;;7.40;100.00;102197.66;5080047;28;19994;-55
2023/04/16 01:53:26;;;;;;;;;;;;;;;7.39;100.00;102198.41;5079984;28;19975;-55
2023/04/16 01:55:51;;;;;;;;;;;;;;;7.40;100.00;102197.66;5086192;28;20050;-54
2023/04/16 01:58:17;;;;;;;;;;;;;;;7.42;100.00;102198.63;5084813;28;19963;-55
2023/04/16 02:00:42;;;;;;;;;;;;;;;7.45;100.00;102203.91;5078567;28;19978;-55
2023/04/16 02:03:08;;;;;;;;;;;;;;;7.44;100.00;102204.72;5079929;28;20452;-54
2023/04/16 02:05:33;;;;;;;;;;;;;;;7.43;100.00;102199.50;5081745;28;20050;-54
2023/04/16 02:07:59;;;;;;;;;;;;;;;7.42;100.00;102201.19;5079952;28;20019;-54
2023/04/16 02:10:24;;;;;;;;;;;;;;;7.45;100.00;102200.47;5078529;28;20363;-54
2023/04/16 02:12:50;;;;;;;;;;;;;;;7.52;100.00;102194.94;5083110;28;19934;-56
2023/04/16 02:15:15;;;;;;;;;;;;;;;7.46;100.00;102199.69;5077438;28;19928;-55
2023/04/16 02:17:40;;;;;;;;;;;;;;;7.47;100.00;102198.91;5076589;28;20420;-55
2023/04/16 02:20:07;;;;;;;;;;;;;;;7.51;100.00;102196.63;5087700;28;19924;-54
2023/04/16 02:22:32;;;;;;;;;;;;;;;7.51;100.00;102196.63;5084991;28;20363;-54
2023/04/16 02:24:57;;;;;;;;;;;;;;;7.45;100.00;102193.69;5083785;28;20057;-55
2023/04/16 02:27:22;;;;;;;;;;;;;;;7.44;100.00;102191.03;5083581;28;19939;-56
2023/04/16 02:29:48;;;;;;;;;;;;;;;7.43;100.00;102202.94;5083048;28;19985;-54
2023/04/16 02:32:13;;;;;;;;;;;;;;;7.43;100.00;102197.81;5082382;28;19924;-54
2023/04/16 02:34:39;;;;;;;;;;;;;;;7.51;100.00;102195.72;5087061;28;20269;-55
2023/04/16 02:37:04;;;;;;;;;;;;;;;7.48;100.00;102196.44;5082234;28;19920;-55
2023/04/16 02:39:29;;;;;;;;;;;;;;;7.49;100.00;102197.31;5078294;28;20144;-53
2023/04/16 02:41:55;;;;;;;;;;;;;;;7.47;100.00;102197.25;5086265;28;19963;-55
2023/04/16 02:44:20;;;;;;;;;;;;;;;7.41;100.00;102203.66;5083123;28;21461;-55
2023/04/16 02:46:45;;;;;;;;;;;;;;;7.40;100.00;102200.22;5081719;28;20374;-55
2023/04/16 02:49:10;;;;;;;;;;;;;;;7.41;100.00;102201.97;5078520;28;20009;-55
2023/04/16 02:51:36;;;;;;;;;;;;;;;7.45;100.00;102196.25;5084444;28;19958;-53
2023/04/16 02:54:01;;;;;;;;;;;;;;;7.48;100.00;102201.56;5081268;28;19976;-54
2023/04/16 02:56:27;;;;;;;;;;;;;;;7.41;100.00;102204.53;5078660;28;20374;-54
2023/04/16 02:58:52;;;;;;;;;;;;;;;7.42;100.00;102203.75;5079657;28;19934;-55
2023/04/16 03:01:18;;;;;;;;;;;;;;;7.40;100.00;102206.97;5082548;28;19927;-55
2023/04/16 03:03:43;;;;;;;;;;;;;;;7.44;100.00;102211.50;5088931;28;19924;-54
2023/04/16 03:06:08;;;;;;;;;;;;;;;7.42;100.00;102216.53;5089048;28;19920;-55
2023/04/16 03:08:33;;;;;;;;;;;;;;;7.38;100.00;102209.44;5080066;28;19920;-55
2023/04/16 03:10:59;;;;;;;;;;;;;;;7.41;100.00;102214.78;5086191;28;19922;-54
2023/04/16 03:13:24;;;;;;;;;;;;;;;7.40;100.00;102210.44;5086213;28;19920;-55
2023/04/16 03:15:50;;;;;;;;;;;;;;;7.37;100.00;102217.91;5081864;28;19928;-56
2023/04/16 03:18:15;;;;;;;;;;;;;;;7.41;100.00;102221.56;5086310;28;20399;-54
2023/04/16 03:20:40;;;;;;;;;;;;;;;7.38;100.00;102218.81;5084770;28;19924;-55
2023/04/16 03:23:05;;;;;;;;;;;;;;;7.39;100.00;102223.13;5081297;28;20033;-55
2023/04/16 03:25:31;;;;;;;;;;;;;;;7.41;100.00;102224.13;5082587;28;19924;-55
2023/04/16 03:27:56;;;;;;;;;;;;;;;7.38;100.00;102221.38;5085027;28;19924;-49
2023/04/16 03:30:21;;;;;;;;;;;;;;;7.41;100.00;102226.69;5079742;28;19920;-47
2023/04/16 03:32:46;;;;;;;;;;;;;;;7.37;100.00;102225.59;5080655;28;19923;-46
2023/04/16 03:35:12;;;;;;;;;;;;;;;7.37;100.00;102224.72;5085140;28;19927;-47
2023/04/16 03:37:37;;;;;;;;;;;;;;;7.42;100.00;102226.78;5082692;28;19924;-46
2023/04/16 03:40:04;;;;;;;;;;;;;;;7.41;100.00;102227.56;5092522;28;19932;-46
2023/04/16 03:42:29;;;;;;;;;;;;;;;7.44;100.00;102220.06;5081809;28;19925;-46
2023/04/16 03:44:55;;;;;;;;;;;;;;;7.46;100.00;102227.84;5089045;28;19939;-46
2023/04/16 03:47:20;;;;;;;;;;;;;;;7.54;100.00;102221.53;5083282;28;20374;-46
2023/04/16 03:49:45;;;;;;;;;;;;;;;7.51;100.00;102227.34;5088897;28;19920;-46
2023/04/16 03:52:11;;;;;;;;;;;;;;;7.44;100.00;102229.41;5081176;28;19931;-46
2023/04/16 03:54:36;;;;;;;;;;;;;;;7.44;100.00;102224.31;5083858;28;20381;-47
2023/04/16 03:57:01;;;;;;;;;;;;;;;7.45;100.00;102226.94;5085029;28;20349;-46
2023/04/16 03:59:27;;;;;;;;;;;;;;;7.44;100.00;102229.41;5077511;28;19943;-45
2023/04/16 04:01:52;;;;;;;;;;;;;;;7.45;100.00;102226.94;5079467;28;19912;-47
2023/04/16 04:04:17;;;;;;;;;;;;;;;7.42;100.00;102221.66;5087662;28;20450;-46
2023/04/16 04:06:44;;;;;;;;;;;;;;;7.41;100.00;102229.25;5085092;28;20438;-46
2023/04/16 04:09:09;;;;;;;;;;;;;;;7.44;100.00;102229.41;5090441;28;19915;-46
2023/04/16 04:11:34;;;;;;;;;;;;;;;7.47;100.00;102227.06;5085815;28;19923;-45
2023/04/16 04:13:59;;;;;;;;;;;;;;;7.42;100.00;102231.00;5081200;28;19963;-47
2023/04/16 04:16:24;;;;;;;;;;;;;;;7.42;100.00;102228.44;5084314;28;19926;-46
2023/04/16 04:18:50;;;;;;;;;;;;;;;7.46;100.00;102235.50;5086839;28;19915;-46
2023/04/16 04:21:15;;;;;;;;;;;;;;;7.45;100.00;102223.50;5077140;28;20692;-47
2023/04/16 04:23:41;;;;;;;;;;;;;;;7.49;100.00;102238.28;5085883;28;19930;-45
2023/04/16 04:26:06;;;;;;;;;;;;;;;7.47;100.00;102235.63;5095192;28;19952;-46
2023/04/16 04:28:32;;;;;;;;;;;;;;;7.45;100.00;102232.06;5087707;28;19916;-45
2023/04/16 04:30:57;;;;;;;;;;;;;;;7.49;100.00;102236.59;5090826;28;20258;-46
2023/04/16 04:33:23;;;;;;;;;;;;;;;7.52;100.00;102239.38;5084226;28;19920;-46
2023/04/16 04:35:48;;;;;;;;;;;;;;;7.47;100.00;102239.88;5088076;28;19924;-46
2023/04/16 04:38:18;;;;;;;;;;;;;;;7.44;100.00;102248.22;5087259;28;19969;-46
2023/04/16 04:40:43;;;;;;;;;;;;;;;7.44;100.00;102247.34;5086622;28;19969;-48
2023/04/16 04:43:08;;;;;;;;;;;;;;;7.50;100.00;102248.59;5088928;28;19924;-49
2023/04/16 04:45:34;;;;;;;;;;;;;;;7.48;100.00;102245.06;5088878;28;19963;-46
2023/04/16 04:47:59;;;;;;;;;;;;;;;7.46;100.00;102255.97;5083042;28;19934;-46
2023/04/16 04:50:24;;;;;;;;;;;;;;;7.43;100.00;102251.56;5079257;28;19924;-46
2023/04/16 04:52:50;;;;;;;;;;;;;;;7.53;100.00;102247.94;5082330;28;19924;-46
2023/04/16 04:55:15;;;;;;;;;;;;;;;7.50;100.00;102252.84;5094827;28;19930;-46
2023/04/16 04:57:40;;;;;;;;;;;;;;;7.49;100.00;102256.19;5091298;28;20275;-46
2023/04/16 05:00:06;;;;;;;;;;;;;;;7.51;100.00;102254.59;5087025;28;19932;-46
2023/04/16 05:02:31;;;;;;;;;;;;;;;7.49;100.00;102263.88;5085057;28;19940;-45
2023/04/16 05:04:56;;;;;;;;;;;;;;;7.46;100.00;102264.56;5087574;28;20394;-45
2023/04/16 05:07:22;;;;;;;;;;;;;;;7.45;100.00;102261.91;5088060;28;19927;-49
2023/04/16 05:09:47;;;;;;;;;;;;;;;7.50;100.00;102261.41;5091790;28;19920;-47
2023/04/16 05:12:12;;;;;;;;;;;;;;;7.48;100.00;102265.56;5087541;28;20123;-47
2023/04/16 05:14:37;;;;;;;;;;;;;;;7.45;100.00;102259.34;5083788;28;19928;-48
2023/04/16 05:17:03;;;;;;;;;;;;;;;7.46;100.00;102259.47;5083802;28;19920;-48
2023/04/16 05:19:28;;;;;;;;;;;;;;;7.41;100.00;102255.72;5091849;28;20118;-46
2023/04/16 05:21:53;;;;;;;;;;;;;;;7.42;100.00;102266.84;5085799;28;19924;-50
2023/04/16 05:24:19;;;;;;;;;;;;;;;7.43;100.00;102268.59;5089048;28;19939;-46
2023/04/16 05:26:44;;;;;;;;;;;;;;;7.42;100.00;102265.16;5086248;28;19978;-46
2023/04/16 05:29:09;;;;;;;;;;;;;;;7.42;100.00;102272.84;5086734;28;19935;-49
2023/04/16 05:31:35;;;;;;;;;;;;;;;7.39;100.00;102270.06;5084620;28;19974;-46
2023/04/16 05:34:00;;;;;;;;;;;;;;;7.37;100.00;102271.66;5086276;28;19920;-47
2023/04/16 05:36:25;;;;;;;;;;;;;;;7.43;100.00;102276.28;5089088;28;20377;-47
2023/04/16 05:38:50;;;;;;;;;;;;;;;7.43;100.00;102279.72;5089997;28;20579;-46
2023/04/16 05:41:16;;;;;;;;;;;;;;;7.44;100.00;102283.16;5096779;28;19934;-47
2023/04/16 05:43:41;;;;;;;;;;;;;;;7.50;100.00;102281.00;5084845;28;19921;-49
2023/04/16 05:46:06;;;;;;;;;;;;;;;7.47;100.00;102286.81;5090174;28;20006;-46
2023/04/16 05:48:31;;;;;;;;;;;;;;;7.46;100.00;102289.25;5088521;28;20394;-46
2023/04/16 05:50:57;;;;;;;;;;;;;;;7.42;100.00;102285.63;5086296;28;19932;-46
2023/04/16 05:53:22;;;;;;;;;;;;;;;7.47;100.00;102291.94;5087873;28;19920;-47
2023/04/16 05:55:47;;;;;;;;;;;;;;;7.44;100.00;102291.72;5086380;28;19924;-46
2023/04/16 05:58:13;;;;;;;;;;;;;;;7.47;100.00;102291.94;5089439;28;19947;-48
2023/04/16 06:00:38;;;;;;;;;;;;;;;7.50;100.00;102301.47;5086284;28;19932;-45
2023/04/16 06:03:03;;;;;;;;;;;;;;;7.49;100.00;102299.72;5086874;28;19950;-45
2023/04/16 06:05:28;;;;;;;;;;;;;;;7.55;100.00;102294.09;5082137;28;19924;-45
2023/04/16 06:07:54;;;;;;;;;;;;;;;7.50;100.00;102296.34;5085577;28;19939;-46
2023/04/16 06:10:20;;;;;;;;;;;;;;;7.51;100.00;102298.13;5091426;28;20287;-46
2023/04/16 06:12:45;;;;;;;;;;;;;;;7.46;100.00;102300.41;5085126;28;19920;-46
2023/04/16 06:15:10;;;;;;;;;;;;;;;7.45;100.00;102303.72;5085658;28;20115;-46
2023/04/16 06:17:36;;;;;;;;;;;;;;;7.51;100.00;102296.44;5087956;28;19923;-46
2023/04/16 06:20:01;;;;;;;;;;;;;;;7.57;100.00;102300.19;5084461;28;19923;-45
2023/04/16 06:22:26;;;;;;;;;;;;;;;7.54;100.00;102298.31;5084881;28;19924;-45
2023/04/16 06:24:52;;;;;;;;;;;;;;;7.53;100.00;102305.13;5080742;28;19962;-46
2023/04/16 06:27:17;;;;;;;;;;;;;;;7.56;100.00;102306.97;5079101;28;20722;-46
2023/04/16 06:29:42;;;;;;;;;;;;;;;7.53;100.00;102309.34;5084208;28;20393;-48
2023/04/16 06:32:07;;;;;;;;;;;;;;;7.51;100.00;102303.22;5083467;28;20346;-47
2023/04/16 06:34:33;;;;;;;;;;;;;;;7.57;100.00;102307.84;5081799;28;19920;-48
2023/04/16 06:36:58;;;;;;;;;;;;;;;7.55;100.00;102322.25;5083791;28;19928;-47
2023/04/16 06:39:24;;;;;;;;;;;;;;;7.57;100.00;102313.84;5082905;28;19928;-47
2023/04/16 06:41:49;;;;;;;;;;;;;;;7.52;100.00;102320.34;5086957;28;20271;-49
2023/04/16 06:44:15;;;;;;;;;;;;;;;7.54;100.00;102323.91;5086885;28;19966;-47
2023/04/16 06:46:40;;;;;;;;;;;;;;;7.55;100.00;102322.25;5088834;28;19931;-46
2023/04/16 06:49:06;;;;;;;;;;;;;;;7.53;100.00;102325.59;5079732;28;19916;-48
2023/04/16 06:51:31;;;;;;;;;;;;;;;7.56;100.00;102326.56;5083395;28;19916;-48
2023/04/16 06:53:56;;;;;;;;;;;;;;;7.58;100.00;102336.09;5076876;28;19930;-46
2023/04/16 06:56:21;;;;;;;;;;;;;;;7.62;100.00;102335.53;5086459;28;20290;-45
2023/04/16 06:58:47;;;;;;;;;;;;;;;7.66;100.00;102336.63;5084029;28;20325;-49
2023/04/16 07:01:12;;;;;;;;;;;;;;;7.63;100.00;102341.53;5081592;28;19935;-47
2023/04/16 07:03:37;;;;;;;;;;;;;;;7.70;100.00;102336.88;5085252;28;19924;-49
2023/04/16 07:06:03;;;;;;;;;;;;;;;7.66;100.00;102344.28;5084733;28;19967;-46
2023/04/16 07:08:28;;;;;;;;;;;;;;;7.68;100.00;102340.16;5083404;28;20005;-49
2023/04/16 07:10:53;;;;;;;;;;;;;;;7.67;100.00;102346.94;5084614;28;20324;-48
2023/04/16 07:13:19;;;;;;;;;;;;;;;7.70;100.00;102344.56;5075416;28;19920;-46
2023/04/16 07:15:44;;;;;;;;;;;;;;;7.70;100.00;102351.34;5090043;28;20001;-47
2023/04/16 07:18:09;;;;;;;;;;;;;;;7.71;100.00;102348.03;5080125;28;19924;-46
2023/04/16 07:20:35;;;;;;;;;;;;;;;7.73;100.00;102354.13;5090394;28;20066;-48
2023/04/16 07:23:00;;;;;;;;;;;;;;;7.76;100.00;102354.31;5090167;28;19920;-46
2023/04/16 07:25:26;;;;;;;;;;;;;;;7.74;100.00;102359.34;5083956;28;20017;-46
2023/04/16 07:27:51;;;;;;;;;;;;;;;7.76;100.00;102362.00;5081250;28;20330;-46
2023/04/16 07:30:16;;;;;;;;;;;;;;;7.81;100.00;102370.84;5077741;28;19960;-44
2023/04/16 07:32:41;;;;;;;;;;;;;;;7.81;100.00;102368.28;5085492;28;19927;-47
2023/04/16 07:35:07;;;;;;;;;;;;;;;7.80;100.00;102361.41;5084899;28;19922;-45
2023/04/16 07:37:32;;;;;;;;;;;;;;;7.81;100.00;102363.16;5087173;28;20011;-47
2023/04/16 07:39:59;;;;;;;;;;;;;;;7.83;100.00;102364.19;5086854;28;19924;-45
2023/04/16 07:42:24;;;;;;;;;;;;;;;7.87;100.00;102370.34;5088505;28;19923;-45
2023/04/16 07:44:50;;;;;;;;;;;;;;;7.92;100.00;102377.53;5090562;28;19981;-47
2023/04/16 07:47:15;;;;;;;;;;;;;;;7.90;100.00;102374.00;5083428;28;19954;-47
2023/04/16 07:49:40;;;;;;;;;;;;;;;7.92;100.00;102381.78;5088937;28;19958;-46
2023/04/16 07:52:05;;;;;;;;;;;;;;;7.89;100.00;102382.50;5074083;28;19931;-47
2023/04/16 07:54:31;;;;;;;;;;;;;;;7.94;100.00;102388.75;5082081;28;19920;-46
2023/04/16 07:56:56;;;;;;;;;;;;;;;7.95;100.00;102395.69;5079045;28;19924;-46
2023/04/16 07:59:21;;;;;;;;;;;;;;;7.97;100.00;102390.66;5082147;28;19927;-46
2023/04/16 08:01:47;;;;;;;;;;;;;;;8.00;100.00;102391.69;5084880;28;19920;-45
2023/04/16 08:04:13;;;;;;;;;;;;;;;8.05;100.00;102398.00;5088339;28;19928;-46
2023/04/16 08:06:38;;;;;;;;;;;;;;;8.06;100.00;102398.88;5091935;28;19974;-47
2023/04/16 08:09:03;;;;;;;;;;;;;;;8.09;100.00;102401.66;5090415;28;19920;-48
2023/04/16 08:11:29;;;;;;;;;;;;;;;8.11;100.00;102399.19;5081866;28;20011;-45
2023/04/16 08:13:54;;;;;;;;;;;;;;;8.14;100.00;102405.41;5086001;28;20018;-47
2023/04/16 08:16:19;;;;;;;;;;;;;;;8.17;100.00;102403.00;5081345;28;19920;-46
2023/04/16 08:18:45;;;;;;;;;;;;;;;8.20;100.00;102412.59;5084697;28;19920;-45
2023/04/16 08:21:10;;;;;;;;;;;;;;;8.21;100.00;102410.13;5080438;28;19931;-46
2023/04/16 08:23:35;;;;;;;;;;;;;;;8.24;100.00;102415.41;5079527;28;20024;-45
2023/04/16 08:26:01;;;;;;;;;;;;;;;8.28;100.00;102412.25;5078749;28;19932;-46
2023/04/16 08:28:26;;;;;;;;;;;;;;;8.27;100.00;102422.41;5079058;28;19920;-47
2023/04/16 08:30:51;;;;;;;;;;;;;;;8.28;100.00;102416.50;5082511;28;19939;-45
2023/04/16 08:33:16;;;;;;;;;;;;;;;8.34;100.00;102414.31;5073882;28;19916;-45
2023/04/16 08:35:42;;;;;;;;;;;;;;;8.34;100.00;102424.56;5082581;28;19928;-50
2023/04/16 08:38:07;;;;;;;;;;;;;;;8.34;100.00;102420.31;5072976;28;19929;-48
2023/04/16 08:40:34;;;;;;;;;;;;;;;8.32;100.00;102431.28;5096835;27;19936;-49
2023/04/16 08:43:01;;;;;;;;;;;;;;;8.36;100.00;102425.56;5084904;28;19966;-48
2023/04/16 08:45:27;;;;;;;;;;;;;;;8.40;100.00;102431.78;5083650;28;19947;-46
2023/04/16 08:47:52;;;;;;;;;;;;;;;8.39;100.00;102423.22;5082350;28;19967;-46
2023/04/16 08:50:25;;;;;;;;;;;;;;;8.48;100.00;102430.56;5079394;28;19966;-47
2023/04/16 08:52:52;;;;;;;;;;;;;;;8.49;100.00;102430.69;5078367;28;19920;-46
2023/04/16 08:55:37;;;;;;;;;;;;;;;8.53;100.00;102432.63;5081043;28;19916;-46
2023/04/16 08:58:07;;;;;;;;;;;;;;;8.57;100.00;102432.03;5079141;28;19917;-49
2023/04/16 09:00:32;;;;;;;;;;;;;;;8.62;100.00;102436.56;5081537;28;19993;-46
2023/04/16 09:02:58;;;;;;;;;;;;;;;8.60;100.00;102431.31;5087072;28;20328;-46
2023/04/16 09:05:25;;;;;;;;;;;;;;;8.64;100.00;102429.84;5083353;28;19931;-46
2023/04/16 09:07:51;;;;;;;;;;;;;;;8.64;100.00;102434.97;5081605;28;19924;-46
2023/04/16 09:10:16;;;;;;;;;;;;;;;8.65;100.00;102439.31;5084512;28;20283;-46
2023/04/16 09:12:42;;;;;;;;;;;;;;;8.67;100.00;102442.84;5093055;28;19915;-46
2023/04/16 09:15:11;;;;;;;;;;;;;;;8.70;100.00;102440.47;5094831;28;20263;-45
2023/04/16 09:17:36;;;;;;;;;;;;;;;8.68;100.00;102448.06;5082359;28;19924;-47
2023/04/16 09:20:07;;;;;;;;;;;;;;;8.74;100.00;102445.88;5079870;28;20402;-44
2023/04/16 09:22:32;;;;;;;;;;;;;;;8.78;100.00;102446.94;5084483;28;19921;-48
2023/04/16 09:24:58;;;;;;;;;;;;;;;8.79;100.00;102449.59;5085862;28;19922;-48
2023/04/16 09:27:24;;;;;;;;;;;;;;;8.80;100.00;102453.94;5085810;28;19924;-46
2023/04/16 09:29:49;;;;;;;;;;;;;;;8.80;100.00;102453.94;5079251;28;19947;-49
2023/04/16 09:32:14;;;;;;;;;;;;;;;8.77;100.00;102455.44;5077307;28;20501;-47
2023/04/16 09:34:59;;;;;;;;;;;;;;;8.79;100.00;102456.41;5079935;28;20298;-50
2023/04/16 09:37:26;;;;;;;;;;;;;;;8.83;100.00;102460.94;5078704;28;19942;-48
2023/04/16 09:39:59;;;;;;;;;;;;;;;8.88;100.00;102458.66;5081921;28;20622;-51
2023/04/16 09:42:26;;;;;;;;;;;;;;;8.87;100.00;102465.47;5082681;28;19916;-47
2023/04/16 09:44:51;;;;;;;;;;;;;;;8.91;100.00;102469.09;5078216;28;19924;-51
2023/04/16 09:47:17;;;;;;;;;;;;;;;8.90;100.00;102473.31;5079878;28;19935;-48
2023/04/16 09:49:42;;;;;;;;;;;;;;;8.93;100.00;102475.22;5084614;28;19916;-48
2023/04/16 09:52:14;;;;;;;;;;;;;;;8.93;100.00;102478.66;5083726;28;19969;-48
2023/04/16 09:54:45;;;;;;;;;;;;;;;8.97;100.00;102480.59;5076667;28;19946;-48
2023/04/16 09:57:10;;;;;;;;;;;;;;;9.02;100.00;102481.75;5080505;28;19920;-50
2023/04/16 09:59:36;;;;;;;;;;;;;;;9.02;100.00;102481.75;5082715;28;20282;-50
2023/04/16 10:02:01;;;;;;;;;;;;;;;9.01;100.00;102484.25;5083651;28;19920;-50
2023/04/16 10:04:26;;;;;;;;;;;;;;;8.98;100.00;102482.41;5079372;28;20729;-48
2023/04/16 10:07:02;;;;;;;;;;;;;;;9.01;100.00;102480.00;5082436;28;19928;-48
2023/04/16 10:09:30;;;;;;;;;;;;;;;9.04;100.00;102476.72;5074813;28;19940;-50
2023/04/16 10:11:56;;;;;;;;;;;;;;;9.07;100.00;102485.50;5077091;28;22515;-49
2023/04/16 10:14:21;;;;;;;;;;;;;;;9.09;100.00;102481.34;5079555;28;19970;-48
2023/04/16 10:16:46;;;;;;;;;;;;;;;9.12;100.00;102484.09;5082304;28;19926;-49
2023/04/16 10:19:12;;;;;;;;;;;;;;;9.14;100.00;102487.63;5079270;28;19917;-47
2023/04/16 10:21:37;;;;;;;;;;;;;;;9.16;100.00;102491.97;5082131;28;19923;-46
2023/04/16 10:24:03;;;;;;;;;;;;;;;9.17;100.00;102493.75;5081606;28;19928;-50
2023/04/16 10:26:29;;;;;;;;;;;;;;;9.24;100.00;102485.63;5073397;28;20459;-46
2023/04/16 10:28:55;;;;;;;;;;;;;;;9.19;100.00;102489.59;5074394;28;19960;-48
2023/04/16 10:31:21;;;;;;;;;;;;;;;9.17;100.00;102486.06;5080896;28;20385;-50
2023/04/16 10:33:46;;;;;;;;;;;;;;;9.09;100.00;102483.91;5079696;28;20306;-50
2023/04/16 10:36:12;;;;;;;;;;;;;;;9.11;100.00;102489.16;5079235;28;19920;-46
2023/04/16 10:38:38;;;;;;;;;;;;;;;9.14;100.00;102491.88;5077677;28;19916;-46
2023/04/16 10:41:04;;;;;;;;;;;;;;;9.17;100.00;102492.06;5072719;28;20275;-46
2023/04/16 10:43:30;;;;;;;;;;;;;;;9.16;100.00;102497.09;5076685;28;19930;-47
2023/04/16 10:45:55;;;;;;;;;;;;;;;9.19;100.00;102497.28;5075786;28;19916;-46
2023/04/16 10:48:22;;;;;;;;;;;;;;;9.21;100.00;102496.56;5086101;28;19939;-53
2023/04/16 10:50:55;;;;;;;;;;;;;;;9.23;100.00;102502.72;5080041;28;20367;-57
2023/04/16 10:53:25;;;;;;;;;;;;;;;9.24;100.00;102493.31;5084230;28;19966;-55
2023/04/16 10:56:03;;;;;;;;;;;;;;;9.28;100.00;102497.81;5078746;28;19961;-55
2023/04/16 10:58:29;;;;;;;;;;;;;;;9.30;100.00;102493.69;5084814;28;19999;-55
2023/04/16 11:00:54;;;;;;;;;;;;;;;9.31;100.00;102493.78;5080393;28;19943;-55
2023/04/16 11:03:20;;;;;;;;;;;;;;;9.33;100.00;102491.28;5078254;28;20375;-55
2023/04/16 11:05:45;;;;;;;;;;;;;;;9.39;100.00;102497.66;5079994;28;19920;-56
2023/04/16 11:08:14;;;;;;;;;;;;;;;9.44;100.00;102495.38;5081418;28;20373;-56
2023/04/16 11:10:40;;;;;;;;;;;;;;;9.51;100.00;102494.94;5081736;28;19920;-54
2023/04/16 11:13:06;;;;;;;;;;;;;;;9.42;100.00;102496.97;5081127;28;19938;-54
2023/04/16 11:15:32;;;;;;;;;;;;;;;9.39;100.00;102492.53;5086972;28;19921;-56
2023/04/16 11:17:57;;;;;;;;;;;;;;;9.40;100.00;102491.75;5080340;28;19966;-55
2023/04/16 11:20:24;;;;;;;;;;;;;;;9.47;100.00;102490.44;5080872;28;20015;-53
2023/04/16 11:22:50;;;;;;;;;;;;;;;9.57;100.00;102486.69;5082684;28;20424;-55
2023/04/16 11:25:19;;;;;;;;;;;;;;;9.59;100.00;102488.56;5082136;28;19916;-53
2023/04/16 11:27:45;;;;;;;;;;;;;;;9.63;100.00;102492.19;5082740;28;20022;-56
2023/04/16 11:30:10;;;;;;;;;;;;;;;9.58;100.00;102496.16;5078712;28;20034;-57
2023/04/16 11:32:36;;;;;;;;;;;;;;;9.60;100.00;102492.91;5077758;28;20382;-55
2023/04/16 11:35:03;;;;;;;;;;;;;;;9.63;100.00;102498.22;5079243;28;19926;-55
2023/04/16 11:37:33;;;;;;;;;;;;;;;9.66;100.00;102492.38;5082385;28;19923;-56
2023/04/16 11:39:58;;;;;;;;;;;;;;;9.68;100.00;102494.22;5083579;28;19932;-57
2023/04/16 11:42:27;;;;;;;;;;;;;;;9.70;100.00;102496.88;5078275;28;20576;-56
2023/04/16 11:44:53;;;;;;;;;;;;;;;9.67;100.00;102501.84;5089597;28;19927;-56
2023/04/16 11:47:19;;;;;;;;;;;;;;;9.69;100.00;102497.69;5077628;28;19921;-55
2023/04/16 11:49:44;;;;;;;;;;;;;;;9.71;100.00;102497.75;5081720;28;19930;-56
2023/04/16 11:52:09;;;;;;;;;;;;;;;9.70;100.00;102499.44;5073673;28;19958;-55
2023/04/16 11:54:35;;;;;;;;;;;;;;;9.66;100.00;102497.53;5076154;28;19977;-58
2023/04/16 11:57:03;;;;;;;;;;;;;;;9.71;100.00;102497.75;5079946;28;19924;-55
2023/04/16 11:59:28;;;;;;;;;;;;;;;9.71;100.00;102505.47;5080796;28;20359;-57
2023/04/16 12:01:54;;;;;;;;;;;;;;;9.73;100.00;102509.03;5075878;28;19924;-55
2023/04/16 12:04:23;;;;;;;;;;;;;;;9.71;100.00;102513.16;5078623;28;19920;-56
2023/04/16 12:07:07;;;;;;;;;;;;;;;9.72;100.00;102512.41;5074739;28;19923;-56
2023/04/16 12:09:35;;;;;;;;;;;;;;;9.68;100.00;102519.91;5080408;28;20289;-56
2023/04/16 12:12:01;;;;;;;;;;;;;;;9.69;100.00;102523.38;5072218;28;20353;-55
2023/04/16 12:14:27;;;;;;;;;;;;;;;9.79;100.00;102527.38;5076590;28;19950;-56
2023/04/16 12:16:52;;;;;;;;;;;;;;;9.71;100.00;102528.59;5085416;28;20006;-58
2023/04/16 12:19:17;;;;;;;;;;;;;;;9.74;100.00;102529.66;5082778;28;19923;-57
2023/04/16 12:21:49;;;;;;;;;;;;;;;9.78;100.00;102525.59;5077110;28;19924;-55
2023/04/16 12:24:16;;;;;;;;;;;;;;;9.82;100.00;102528.41;5083769;28;20001;-56
2023/04/16 12:26:45;;;;;;;;;;;;;;;9.83;100.00;102529.31;5073071;28;19920;-56
2023/04/16 12:29:14;;;;;;;;;;;;;;;9.88;100.00;102525.31;5079980;28;19923;-56